Hovedside
METAR-TAF:

METAR-TAF

Lufthavner :

Port Moresby, Papua Ny-Guinea

breddegrad: 09-26S, lengdegrad: 147-13E, høyde over havet: 38 m

Gjeldene værobservasjon

Denne rapporten ble laget for 1 time og 9 minutter siden, klokken 14:00 UTC
Vind 3 kt fra skiftende retning
Temperatur 27°C
Luftfuktighet 94%
Trykk 1010 hPa
Sikt 10 km eller mer
Spredte skyer i en høyde av 1000 ft
Brutte skyer i en høyde av 16000 ft

METAR: AYPY 251400Z VRB03KT 9999 SCT010 BKN160 27/26 Q1010

Tid: 01:09 (15:09 UTC)

Varsel

Denne rapporten ble laget for 11 timer og 8 minutter siden, klokken 04:01 UTC
Varsel gyldig fra 25. klokken 06 UTC til 26. klokken 06 UTC
Vind 8 kt fra Sørvest
Sikt 10 km eller mer
Spredte skyer i en høyde av 1800 ft
Spredte skyer i en høyde av 14000 ft
lette regnbyger
Fra 25. klokken 0900 UTC
Vind 3 kt fra skiftende retning
Sikt: 1009 m
Spredte skyer i en høyde av 4000 ft

TAF: AYPY 250401Z 2506/2606 23008KT 9999 -SHRA SCT018 SCT140 FM250900 VRB03KT 9999 SCT040 T 33 31 29 27 Q 1007 1008 1010 1009

Værobservasjoner og værvarsel for over 4000 flyplasser (METAR- og TAF-rapporter).

Tilgjengelige stasjoner er representert av de røde og gule prikkene på kartet.

Hold musepekeren over prikken for å se navnet på stasjonen.

Klikk så for å se værobservasjoner og -varsler.

For å forandre kartet kan du klikke på den grønne knappen med svart kryss for å zoome inn, på den grønne knappen med strek for å zoome ut, eller på de grønne pilene for å se tilstøtende kart.


METAR-TAF: